sensor_id;sensor_type;location;lat;lon;timestamp;P1;durP1;ratioP1;P2;durP2;ratioP2
17365;SDS011;8800;50.118;9.900;2023-04-03T00:01:13;7.40;;;3.80;;
17365;SDS011;8800;50.118;9.900;2023-04-03T00:03:41;6.70;;;3.80;;
17365;SDS011;8800;50.118;9.900;2023-04-03T00:06:09;6.43;;;3.63;;
17365;SDS011;8800;50.118;9.900;2023-04-03T00:08:36;7.72;;;3.40;;
17365;SDS011;8800;50.118;9.900;2023-04-03T00:11:02;5.50;;;3.22;;
17365;SDS011;8800;50.118;9.900;2023-04-03T00:13:29;5.28;;;3.50;;
17365;SDS011;8800;50.118;9.900;2023-04-03T00:15:55;6.32;;;3.92;;
17365;SDS011;8800;50.118;9.900;2023-04-03T00:18:22;6.45;;;3.60;;
17365;SDS011;8800;50.118;9.900;2023-04-03T00:20:50;6.38;;;3.22;;
17365;SDS011;8800;50.118;9.900;2023-04-03T00:23:16;5.05;;;3.35;;
17365;SDS011;8800;50.118;9.900;2023-04-03T00:25:43;5.25;;;3.00;;
17365;SDS011;8800;50.118;9.900;2023-04-03T00:28:09;5.35;;;3.55;;
17365;SDS011;8800;50.118;9.900;2023-04-03T00:30:36;6.80;;;3.72;;
17365;SDS011;8800;50.118;9.900;2023-04-03T00:33:02;5.57;;;3.03;;
17365;SDS011;8800;50.118;9.900;2023-04-03T00:35:29;3.65;;;3.00;;
17365;SDS011;8800;50.118;9.900;2023-04-03T00:37:57;5.18;;;3.20;;
17365;SDS011;8800;50.118;9.900;2023-04-03T00:40:24;6.57;;;3.28;;
17365;SDS011;8800;50.118;9.900;2023-04-03T00:42:52;4.05;;;2.80;;
17365;SDS011;8800;50.118;9.900;2023-04-03T00:45:30;5.18;;;2.80;;
17365;SDS011;8800;50.118;9.900;2023-04-03T00:47:57;7.20;;;3.30;;
17365;SDS011;8800;50.118;9.900;2023-04-03T00:50:25;7.30;;;2.92;;
17365;SDS011;8800;50.118;9.900;2023-04-03T00:52:52;5.65;;;3.35;;
17365;SDS011;8800;50.118;9.900;2023-04-03T00:55:20;4.47;;;3.33;;
17365;SDS011;8800;50.118;9.900;2023-04-03T00:57:46;7.07;;;3.85;;
17365;SDS011;8800;50.118;9.900;2023-04-03T01:00:14;4.72;;;3.55;;
17365;SDS011;8800;50.118;9.900;2023-04-03T01:02:41;6.60;;;3.88;;
17365;SDS011;8800;50.118;9.900;2023-04-03T01:05:08;6.05;;;3.75;;
17365;SDS011;8800;50.118;9.900;2023-04-03T01:07:35;5.40;;;3.72;;
17365;SDS011;8800;50.118;9.900;2023-04-03T01:10:03;6.55;;;3.90;;
17365;SDS011;8800;50.118;9.900;2023-04-03T01:12:32;7.15;;;3.40;;
17365;SDS011;8800;50.118;9.900;2023-04-03T01:14:59;6.18;;;3.63;;
17365;SDS011;8800;50.118;9.900;2023-04-03T01:17:30;5.05;;;3.00;;
17365;SDS011;8800;50.118;9.900;2023-04-03T01:20:02;7.55;;;3.40;;
17365;SDS011;8800;50.118;9.900;2023-04-03T01:22:41;5.55;;;3.80;;
17365;SDS011;8800;50.118;9.900;2023-04-03T01:25:12;6.07;;;3.40;;
17365;SDS011;8800;50.118;9.900;2023-04-03T01:27:40;6.95;;;3.58;;
17365;SDS011;8800;50.118;9.900;2023-04-03T01:30:07;5.55;;;3.75;;
17365;SDS011;8800;50.118;9.900;2023-04-03T01:32:35;5.68;;;3.70;;
17365;SDS011;8800;50.118;9.900;2023-04-03T01:35:02;5.95;;;3.67;;
17365;SDS011;8800;50.118;9.900;2023-04-03T01:37:28;5.65;;;3.58;;
17365;SDS011;8800;50.118;9.900;2023-04-03T01:39:55;7.55;;;3.50;;
17365;SDS011;8800;50.118;9.900;2023-04-03T01:42:21;6.07;;;3.67;;
17365;SDS011;8800;50.118;9.900;2023-04-03T01:44:47;8.68;;;3.97;;
17365;SDS011;8800;50.118;9.900;2023-04-03T01:47:14;5.65;;;3.20;;
17365;SDS011;8800;50.118;9.900;2023-04-03T01:49:42;5.55;;;3.30;;
17365;SDS011;8800;50.118;9.900;2023-04-03T01:52:08;5.85;;;3.38;;
17365;SDS011;8800;50.118;9.900;2023-04-03T01:54:35;6.05;;;3.60;;
17365;SDS011;8800;50.118;9.900;2023-04-03T01:57:01;6.85;;;3.80;;
17365;SDS011;8800;50.118;9.900;2023-04-03T01:59:28;5.75;;;3.60;;
17365;SDS011;8800;50.118;9.900;2023-04-03T02:01:54;4.60;;;2.97;;
17365;SDS011;8800;50.118;9.900;2023-04-03T02:04:20;4.88;;;2.15;;
17365;SDS011;8800;50.118;9.900;2023-04-03T02:06:48;3.78;;;1.50;;
17365;SDS011;8800;50.118;9.900;2023-04-03T02:09:15;4.13;;;1.58;;
17365;SDS011;8800;50.118;9.900;2023-04-03T02:11:41;4.03;;;1.30;;
17365;SDS011;8800;50.118;9.900;2023-04-03T02:14:08;5.43;;;1.90;;
17365;SDS011;8800;50.118;9.900;2023-04-03T02:16:34;5.80;;;1.55;;
17365;SDS011;8800;50.118;9.900;2023-04-03T02:19:00;4.40;;;1.52;;
17365;SDS011;8800;50.118;9.900;2023-04-03T02:21:27;4.28;;;1.45;;
17365;SDS011;8800;50.118;9.900;2023-04-03T02:23:55;4.78;;;1.60;;
17365;SDS011;8800;50.118;9.900;2023-04-03T02:26:21;5.53;;;1.52;;
17365;SDS011;8800;50.118;9.900;2023-04-03T02:28:48;4.43;;;1.90;;
17365;SDS011;8800;50.118;9.900;2023-04-03T02:31:14;3.95;;;1.60;;
17365;SDS011;8800;50.118;9.900;2023-04-03T02:33:40;3.83;;;1.55;;
17365;SDS011;8800;50.118;9.900;2023-04-03T02:36:07;4.20;;;1.50;;
17365;SDS011;8800;50.118;9.900;2023-04-03T02:38:34;3.22;;;1.52;;
17365;SDS011;8800;50.118;9.900;2023-04-03T02:41:02;4.93;;;2.15;;
17365;SDS011;8800;50.118;9.900;2023-04-03T02:43:29;5.40;;;1.50;;
17365;SDS011;8800;50.118;9.900;2023-04-03T02:45:55;7.97;;;1.98;;
17365;SDS011;8800;50.118;9.900;2023-04-03T02:48:22;5.15;;;1.23;;
17365;SDS011;8800;50.118;9.900;2023-04-03T02:50:49;4.07;;;1.40;;
17365;SDS011;8800;50.118;9.900;2023-04-03T02:53:15;6.38;;;1.60;;
17365;SDS011;8800;50.118;9.900;2023-04-03T02:55:42;7.55;;;1.92;;
17365;SDS011;8800;50.118;9.900;2023-04-03T02:58:10;5.25;;;1.67;;
17365;SDS011;8800;50.118;9.900;2023-04-03T03:00:37;5.82;;;1.60;;
17365;SDS011;8800;50.118;9.900;2023-04-03T03:03:03;4.68;;;1.65;;
17365;SDS011;8800;50.118;9.900;2023-04-03T03:05:30;3.78;;;1.40;;
17365;SDS011;8800;50.118;9.900;2023-04-03T03:07:57;3.95;;;1.33;;
17365;SDS011;8800;50.118;9.900;2023-04-03T03:10:23;6.13;;;1.40;;
17365;SDS011;8800;50.118;9.900;2023-04-03T03:12:50;3.78;;;1.77;;
17365;SDS011;8800;50.118;9.900;2023-04-03T03:15:18;4.13;;;1.65;;
17365;SDS011;8800;50.118;9.900;2023-04-03T03:17:44;3.50;;;1.60;;
17365;SDS011;8800;50.118;9.900;2023-04-03T03:20:12;5.70;;;1.63;;
17365;SDS011;8800;50.118;9.900;2023-04-03T03:22:39;6.38;;;1.75;;
17365;SDS011;8800;50.118;9.900;2023-04-03T03:25:05;5.07;;;1.80;;
17365;SDS011;8800;50.118;9.900;2023-04-03T03:27:32;4.47;;;1.58;;
17365;SDS011;8800;50.118;9.900;2023-04-03T03:29:59;5.80;;;1.98;;
17365;SDS011;8800;50.118;9.900;2023-04-03T03:32:26;5.18;;;1.73;;
17365;SDS011;8800;50.118;9.900;2023-04-03T03:34:53;6.22;;;1.90;;
17365;SDS011;8800;50.118;9.900;2023-04-03T03:37:20;4.40;;;2.22;;
17365;SDS011;8800;50.118;9.900;2023-04-03T03:39:46;3.03;;;1.73;;
17365;SDS011;8800;50.118;9.900;2023-04-03T03:42:13;4.72;;;1.70;;
17365;SDS011;8800;50.118;9.900;2023-04-03T03:44:39;4.00;;;1.65;;
17365;SDS011;8800;50.118;9.900;2023-04-03T03:47:06;10.02;;;2.13;;
17365;SDS011;8800;50.118;9.900;2023-04-03T03:49:36;6.22;;;1.90;;
17365;SDS011;8800;50.118;9.900;2023-04-03T03:52:02;6.03;;;1.75;;
17365;SDS011;8800;50.118;9.900;2023-04-03T03:54:29;3.33;;;1.60;;
17365;SDS011;8800;50.118;9.900;2023-04-03T03:56:55;3.75;;;1.60;;
17365;SDS011;8800;50.118;9.900;2023-04-03T03:59:21;6.15;;;2.00;;
17365;SDS011;8800;50.118;9.900;2023-04-03T04:01:48;5.13;;;1.95;;
17365;SDS011;8800;50.118;9.900;2023-04-03T04:04:14;6.03;;;1.67;;
17365;SDS011;8800;50.118;9.900;2023-04-03T04:06:42;4.38;;;1.77;;
17365;SDS011;8800;50.118;9.900;2023-04-03T04:09:09;6.80;;;1.80;;
17365;SDS011;8800;50.118;9.900;2023-04-03T04:11:35;6.53;;;1.90;;
17365;SDS011;8800;50.118;9.900;2023-04-03T04:14:02;7.78;;;1.70;;
17365;SDS011;8800;50.118;9.900;2023-04-03T04:16:28;7.82;;;1.70;;
17365;SDS011;8800;50.118;9.900;2023-04-03T04:18:55;7.35;;;2.10;;
17365;SDS011;8800;50.118;9.900;2023-04-03T04:21:21;3.92;;;1.65;;
17365;SDS011;8800;50.118;9.900;2023-04-03T04:23:49;10.30;;;1.88;;
17365;SDS011;8800;50.118;9.900;2023-04-03T04:26:15;4.97;;;2.00;;
17365;SDS011;8800;50.118;9.900;2023-04-03T04:28:42;4.68;;;2.08;;
17365;SDS011;8800;50.118;9.900;2023-04-03T04:31:08;7.97;;;2.22;;
17365;SDS011;8800;50.118;9.900;2023-04-03T04:33:35;4.72;;;1.77;;
17365;SDS011;8800;50.118;9.900;2023-04-03T04:36:01;5.05;;;1.98;;
17365;SDS011;8800;50.118;9.900;2023-04-03T04:38:28;3.60;;;1.75;;
17365;SDS011;8800;50.118;9.900;2023-04-03T04:40:56;3.85;;;1.85;;
17365;SDS011;8800;50.118;9.900;2023-04-03T04:43:22;6.35;;;1.77;;
17365;SDS011;8800;50.118;9.900;2023-04-03T04:45:59;4.38;;;1.70;;
17365;SDS011;8800;50.118;9.900;2023-04-03T04:48:25;4.78;;;2.10;;
17365;SDS011;8800;50.118;9.900;2023-04-03T04:50:52;7.32;;;2.33;;
17365;SDS011;8800;50.118;9.900;2023-04-03T04:53:18;6.10;;;2.47;;
17365;SDS011;8800;50.118;9.900;2023-04-03T04:55:45;7.80;;;3.00;;
17365;SDS011;8800;50.118;9.900;2023-04-03T04:58:13;6.03;;;2.60;;
17365;SDS011;8800;50.118;9.900;2023-04-03T05:00:39;7.30;;;2.20;;
17365;SDS011;8800;50.118;9.900;2023-04-03T05:03:06;4.85;;;2.00;;
17365;SDS011;8800;50.118;9.900;2023-04-03T05:05:32;3.42;;;1.65;;
17365;SDS011;8800;50.118;9.900;2023-04-03T05:08:00;6.53;;;2.03;;
17365;SDS011;8800;50.118;9.900;2023-04-03T05:10:27;5.05;;;1.95;;
17365;SDS011;8800;50.118;9.900;2023-04-03T05:12:53;4.25;;;2.13;;
17365;SDS011;8800;50.118;9.900;2023-04-03T05:15:21;7.07;;;2.30;;
17365;SDS011;8800;50.118;9.900;2023-04-03T05:17:47;6.03;;;2.10;;
17365;SDS011;8800;50.118;9.900;2023-04-03T05:20:15;3.60;;;1.85;;
17365;SDS011;8800;50.118;9.900;2023-04-03T05:22:42;6.57;;;2.10;;
17365;SDS011;8800;50.118;9.900;2023-04-03T05:25:08;5.70;;;2.40;;
17365;SDS011;8800;50.118;9.900;2023-04-03T05:27:35;6.55;;;2.33;;
17365;SDS011;8800;50.118;9.900;2023-04-03T05:30:02;10.10;;;2.53;;
17365;SDS011;8800;50.118;9.900;2023-04-03T05:32:30;5.18;;;2.50;;
17365;SDS011;8800;50.118;9.900;2023-04-03T05:34:57;6.07;;;2.28;;
17365;SDS011;8800;50.118;9.900;2023-04-03T05:37:23;5.57;;;2.35;;
17365;SDS011;8800;50.118;9.900;2023-04-03T05:39:50;6.15;;;2.42;;
17365;SDS011;8800;50.118;9.900;2023-04-03T05:42:16;5.03;;;2.28;;
17365;SDS011;8800;50.118;9.900;2023-04-03T05:44:43;3.92;;;2.33;;
17365;SDS011;8800;50.118;9.900;2023-04-03T05:47:12;9.77;;;2.67;;
17365;SDS011;8800;50.118;9.900;2023-04-03T05:49:40;5.60;;;2.70;;
17365;SDS011;8800;50.118;9.900;2023-04-03T05:52:06;12.02;;;2.40;;
17365;SDS011;8800;50.118;9.900;2023-04-03T05:54:36;6.72;;;2.55;;
17365;SDS011;8800;50.118;9.900;2023-04-03T05:57:02;6.47;;;2.58;;
17365;SDS011;8800;50.118;9.900;2023-04-03T05:59:29;7.78;;;2.63;;
17365;SDS011;8800;50.118;9.900;2023-04-03T06:01:55;8.20;;;2.40;;
17365;SDS011;8800;50.118;9.900;2023-04-03T06:04:22;7.53;;;2.70;;
17365;SDS011;8800;50.118;9.900;2023-04-03T06:06:50;8.10;;;2.13;;
17365;SDS011;8800;50.118;9.900;2023-04-03T06:09:17;8.27;;;2.58;;
17365;SDS011;8800;50.118;9.900;2023-04-03T06:11:44;7.85;;;2.67;;
17365;SDS011;8800;50.118;9.900;2023-04-03T06:14:11;4.57;;;2.15;;
17365;SDS011;8800;50.118;9.900;2023-04-03T06:16:37;4.80;;;2.40;;
17365;SDS011;8800;50.118;9.900;2023-04-03T06:19:04;7.50;;;2.47;;
17365;SDS011;8800;50.118;9.900;2023-04-03T06:21:31;5.03;;;2.53;;
17365;SDS011;8800;50.118;9.900;2023-04-03T06:23:59;6.20;;;2.20;;
17365;SDS011;8800;50.118;9.900;2023-04-03T06:26:25;4.53;;;1.90;;
17365;SDS011;8800;50.118;9.900;2023-04-03T06:28:52;4.15;;;1.80;;
17365;SDS011;8800;50.118;9.900;2023-04-03T06:31:18;6.10;;;2.20;;
17365;SDS011;8800;50.118;9.900;2023-04-03T06:33:45;7.15;;;2.38;;
17365;SDS011;8800;50.118;9.900;2023-04-03T06:36:11;7.93;;;2.50;;
17365;SDS011;8800;50.118;9.900;2023-04-03T06:38:38;4.72;;;2.03;;
17365;SDS011;8800;50.118;9.900;2023-04-03T06:41:06;6.60;;;2.30;;
17365;SDS011;8800;50.118;9.900;2023-04-03T06:43:32;6.18;;;3.10;;
17365;SDS011;8800;50.118;9.900;2023-04-03T06:45:58;6.97;;;2.00;;
17365;SDS011;8800;50.118;9.900;2023-04-03T06:48:25;5.95;;;2.22;;
17365;SDS011;8800;50.118;9.900;2023-04-03T06:50:51;4.43;;;1.98;;
17365;SDS011;8800;50.118;9.900;2023-04-03T06:53:18;6.30;;;1.90;;
17365;SDS011;8800;50.118;9.900;2023-04-03T06:55:45;3.85;;;2.00;;
17365;SDS011;8800;50.118;9.900;2023-04-03T06:58:13;6.45;;;2.05;;
17365;SDS011;8800;50.118;9.900;2023-04-03T07:00:40;3.63;;;2.10;;
17365;SDS011;8800;50.118;9.900;2023-04-03T07:03:06;4.63;;;1.80;;
17365;SDS011;8800;50.118;9.900;2023-04-03T07:05:33;4.97;;;1.90;;
17365;SDS011;8800;50.118;9.900;2023-04-03T07:07:59;6.93;;;1.80;;
17365;SDS011;8800;50.118;9.900;2023-04-03T07:10:26;5.30;;;2.30;;
17365;SDS011;8800;50.118;9.900;2023-04-03T07:12:52;4.30;;;1.80;;
17365;SDS011;8800;50.118;9.900;2023-04-03T07:15:20;5.95;;;1.88;;
17365;SDS011;8800;50.118;9.900;2023-04-03T07:17:46;5.95;;;1.90;;
17365;SDS011;8800;50.118;9.900;2023-04-03T07:20:13;3.75;;;1.80;;
17365;SDS011;8800;50.118;9.900;2023-04-03T07:22:40;4.43;;;2.08;;
17365;SDS011;8800;50.118;9.900;2023-04-03T07:25:06;4.63;;;2.08;;
17365;SDS011;8800;50.118;9.900;2023-04-03T07:27:33;3.63;;;1.80;;
17365;SDS011;8800;50.118;9.900;2023-04-03T07:29:59;8.40;;;1.90;;
17365;SDS011;8800;50.118;9.900;2023-04-03T07:32:27;7.28;;;2.30;;
17365;SDS011;8800;50.118;9.900;2023-04-03T07:34:54;3.42;;;1.77;;
17365;SDS011;8800;50.118;9.900;2023-04-03T07:37:20;7.13;;;2.42;;
17365;SDS011;8800;50.118;9.900;2023-04-03T07:39:47;6.70;;;2.20;;
17365;SDS011;8800;50.118;9.900;2023-04-03T07:42:14;8.10;;;2.00;;
17365;SDS011;8800;50.118;9.900;2023-04-03T07:44:40;5.63;;;1.73;;
17365;SDS011;8800;50.118;9.900;2023-04-03T07:47:06;6.00;;;1.98;;
17365;SDS011;8800;50.118;9.900;2023-04-03T07:49:34;3.30;;;2.05;;
17365;SDS011;8800;50.118;9.900;2023-04-03T07:52:03;5.57;;;2.40;;
17365;SDS011;8800;50.118;9.900;2023-04-03T07:54:29;9.00;;;2.42;;
17365;SDS011;8800;50.118;9.900;2023-04-03T07:56:55;7.55;;;2.83;;
17365;SDS011;8800;50.118;9.900;2023-04-03T07:59:22;5.10;;;2.30;;
17365;SDS011;8800;50.118;9.900;2023-04-03T08:01:48;6.10;;;2.63;;
17365;SDS011;8800;50.118;9.900;2023-04-03T08:04:15;4.88;;;2.25;;
17365;SDS011;8800;50.118;9.900;2023-04-03T08:06:42;6.18;;;2.30;;
17365;SDS011;8800;50.118;9.900;2023-04-03T08:09:10;5.80;;;2.38;;
17365;SDS011;8800;50.118;9.900;2023-04-03T08:11:38;4.38;;;2.28;;
17365;SDS011;8800;50.118;9.900;2023-04-03T08:14:04;4.45;;;2.20;;
17365;SDS011;8800;50.118;9.900;2023-04-03T08:16:31;6.95;;;2.30;;
17365;SDS011;8800;50.118;9.900;2023-04-03T08:18:58;5.13;;;2.40;;
17365;SDS011;8800;50.118;9.900;2023-04-03T08:21:24;6.50;;;2.72;;
17365;SDS011;8800;50.118;9.900;2023-04-03T08:23:52;5.15;;;2.55;;
17365;SDS011;8800;50.118;9.900;2023-04-03T08:26:20;4.03;;;2.35;;
17365;SDS011;8800;50.118;9.900;2023-04-03T08:28:47;5.10;;;2.20;;
17365;SDS011;8800;50.118;9.900;2023-04-03T08:31:15;3.88;;;1.95;;
17365;SDS011;8800;50.118;9.900;2023-04-03T08:33:43;5.70;;;1.98;;
17365;SDS011;8800;50.118;9.900;2023-04-03T08:36:16;6.00;;;2.47;;
17365;SDS011;8800;50.118;9.900;2023-04-03T08:38:42;5.88;;;2.53;;
17365;SDS011;8800;50.118;9.900;2023-04-03T08:41:13;4.15;;;2.15;;
17365;SDS011;8800;50.118;9.900;2023-04-03T08:43:44;6.03;;;2.00;;
17365;SDS011;8800;50.118;9.900;2023-04-03T08:46:14;4.75;;;2.15;;
17365;SDS011;8800;50.118;9.900;2023-04-03T08:48:43;3.72;;;2.08;;
17365;SDS011;8800;50.118;9.900;2023-04-03T08:51:11;4.10;;;1.70;;
17365;SDS011;8800;50.118;9.900;2023-04-03T08:53:40;4.78;;;1.90;;
17365;SDS011;8800;50.118;9.900;2023-04-03T08:56:08;4.38;;;2.00;;
17365;SDS011;8800;50.118;9.900;2023-04-03T08:58:40;4.60;;;2.10;;
17365;SDS011;8800;50.118;9.900;2023-04-03T09:01:14;5.22;;;1.73;;
17365;SDS011;8800;50.118;9.900;2023-04-03T09:03:42;4.47;;;1.80;;
17365;SDS011;8800;50.118;9.900;2023-04-03T09:06:11;6.95;;;1.80;;
17365;SDS011;8800;50.118;9.900;2023-04-03T09:08:40;5.05;;;1.67;;
17365;SDS011;8800;50.118;9.900;2023-04-03T09:11:12;5.60;;;1.67;;
17365;SDS011;8800;50.118;9.900;2023-04-03T09:13:43;4.35;;;1.55;;
17365;SDS011;8800;50.118;9.900;2023-04-03T09:16:16;3.00;;;1.73;;
17365;SDS011;8800;50.118;9.900;2023-04-03T09:18:47;4.75;;;1.52;;
17365;SDS011;8800;50.118;9.900;2023-04-03T09:21:16;7.45;;;1.65;;
17365;SDS011;8800;50.118;9.900;2023-04-03T09:23:44;3.63;;;1.70;;
17365;SDS011;8800;50.118;9.900;2023-04-03T09:26:13;5.20;;;1.73;;
17365;SDS011;8800;50.118;9.900;2023-04-03T09:28:41;5.18;;;1.75;;
17365;SDS011;8800;50.118;9.900;2023-04-03T09:31:13;5.18;;;1.73;;
17365;SDS011;8800;50.118;9.900;2023-04-03T09:33:42;3.97;;;1.63;;
17365;SDS011;8800;50.118;9.900;2023-04-03T09:36:08;7.93;;;1.80;;
17365;SDS011;8800;50.118;9.900;2023-04-03T09:38:35;3.00;;;1.75;;
17365;SDS011;8800;50.118;9.900;2023-04-03T09:41:04;5.38;;;2.10;;
17365;SDS011;8800;50.118;9.900;2023-04-03T09:43:31;7.28;;;1.88;;
17365;SDS011;8800;50.118;9.900;2023-04-03T09:48:42;4.30;;;1.50;;
17365;SDS011;8800;50.118;9.900;2023-04-03T09:51:16;2.70;;;1.40;;
17365;SDS011;8800;50.118;9.900;2023-04-03T09:53:43;3.20;;;1.45;;
17365;SDS011;8800;50.118;9.900;2023-04-03T09:56:18;5.13;;;1.80;;
17365;SDS011;8800;50.118;9.900;2023-04-03T09:58:47;2.80;;;1.60;;
17365;SDS011;8800;50.118;9.900;2023-04-03T10:01:20;2.63;;;1.70;;
17365;SDS011;8800;50.118;9.900;2023-04-03T10:03:50;2.92;;;1.77;;
17365;SDS011;8800;50.118;9.900;2023-04-03T10:06:29;5.30;;;1.58;;
17365;SDS011;8800;50.118;9.900;2023-04-03T10:08:58;6.07;;;1.50;;
17365;SDS011;8800;50.118;9.900;2023-04-03T10:11:25;3.22;;;1.50;;
17365;SDS011;8800;50.118;9.900;2023-04-03T10:13:53;4.82;;;1.58;;
17365;SDS011;8800;50.118;9.900;2023-04-03T10:16:21;4.63;;;1.63;;
17365;SDS011;8800;50.118;9.900;2023-04-03T10:18:54;3.20;;;1.35;;
17365;SDS011;8800;50.118;9.900;2023-04-03T10:21:28;8.55;;;1.42;;
17365;SDS011;8800;50.118;9.900;2023-04-03T10:23:57;5.47;;;1.55;;
17365;SDS011;8800;50.118;9.900;2023-04-03T10:26:29;3.35;;;1.48;;
17365;SDS011;8800;50.118;9.900;2023-04-03T10:29:01;3.85;;;1.50;;
17365;SDS011;8800;50.118;9.900;2023-04-03T10:31:31;3.25;;;1.10;;
17365;SDS011;8800;50.118;9.900;2023-04-03T10:34:03;4.18;;;1.30;;
17365;SDS011;8800;50.118;9.900;2023-04-03T10:36:36;3.65;;;1.10;;
17365;SDS011;8800;50.118;9.900;2023-04-03T10:39:08;4.97;;;1.15;;
17365;SDS011;8800;50.118;9.900;2023-04-03T10:41:41;2.17;;;1.00;;
17365;SDS011;8800;50.118;9.900;2023-04-03T10:44:14;4.95;;;1.30;;
17365;SDS011;8800;50.118;9.900;2023-04-03T10:46:43;3.17;;;1.25;;
17365;SDS011;8800;50.118;9.900;2023-04-03T10:49:15;5.88;;;1.55;;
17365;SDS011;8800;50.118;9.900;2023-04-03T10:51:44;2.70;;;1.10;;
17365;SDS011;8800;50.118;9.900;2023-04-03T10:54:11;2.83;;;1.10;;
17365;SDS011;8800;50.118;9.900;2023-04-03T10:56:39;2.83;;;1.20;;
17365;SDS011;8800;50.118;9.900;2023-04-03T10:59:14;3.97;;;1.00;;
17365;SDS011;8800;50.118;9.900;2023-04-03T11:01:42;4.50;;;1.20;;
17365;SDS011;8800;50.118;9.900;2023-04-03T11:04:10;1.83;;;1.10;;
17365;SDS011;8800;50.118;9.900;2023-04-03T11:06:39;4.05;;;1.13;;
17365;SDS011;8800;50.118;9.900;2023-04-03T11:09:09;2.10;;;1.00;;
17365;SDS011;8800;50.118;9.900;2023-04-03T11:11:37;3.58;;;1.00;;
17365;SDS011;8800;50.118;9.900;2023-04-03T11:14:08;2.55;;;1.10;;
17365;SDS011;8800;50.118;9.900;2023-04-03T11:16:36;2.67;;;0.95;;
17365;SDS011;8800;50.118;9.900;2023-04-03T11:19:05;1.50;;;0.98;;
17365;SDS011;8800;50.118;9.900;2023-04-03T11:21:36;3.30;;;1.20;;
17365;SDS011;8800;50.118;9.900;2023-04-03T11:24:05;3.47;;;1.15;;
17365;SDS011;8800;50.118;9.900;2023-04-03T11:26:41;2.80;;;1.00;;
17365;SDS011;8800;50.118;9.900;2023-04-03T11:29:09;1.60;;;0.90;;
17365;SDS011;8800;50.118;9.900;2023-04-03T11:31:41;2.10;;;0.98;;
17365;SDS011;8800;50.118;9.900;2023-04-03T11:34:14;1.63;;;1.10;;
17365;SDS011;8800;50.118;9.900;2023-04-03T11:36:44;2.20;;;1.10;;
17365;SDS011;8800;50.118;9.900;2023-04-03T11:39:17;2.58;;;1.13;;
17365;SDS011;8800;50.118;9.900;2023-04-03T11:41:45;5.20;;;1.23;;
17365;SDS011;8800;50.118;9.900;2023-04-03T11:44:26;1.98;;;0.80;;
17365;SDS011;8800;50.118;9.900;2023-04-03T11:46:55;3.45;;;1.00;;
17365;SDS011;8800;50.118;9.900;2023-04-03T11:52:08;3.13;;;0.93;;
17365;SDS011;8800;50.118;9.900;2023-04-03T11:54:46;2.70;;;0.90;;
17365;SDS011;8800;50.118;9.900;2023-04-03T11:57:22;2.50;;;0.90;;
17365;SDS011;8800;50.118;9.900;2023-04-03T12:02:54;2.65;;;1.10;;
17365;SDS011;8800;50.118;9.900;2023-04-03T12:05:25;1.77;;;1.00;;
17365;SDS011;8800;50.118;9.900;2023-04-03T12:10:34;3.03;;;1.15;;
17365;SDS011;8800;50.118;9.900;2023-04-03T12:13:01;2.45;;;1.10;;
17365;SDS011;8800;50.118;9.900;2023-04-03T12:20:56;1.80;;;1.02;;
17365;SDS011;8800;50.118;9.900;2023-04-03T12:23:24;2.03;;;0.93;;
17365;SDS011;8800;50.118;9.900;2023-04-03T12:25:52;3.88;;;1.25;;
17365;SDS011;8800;50.118;9.900;2023-04-03T12:28:25;6.43;;;1.33;;
17365;SDS011;8800;50.118;9.900;2023-04-03T12:30:53;2.65;;;1.08;;
17365;SDS011;8800;50.118;9.900;2023-04-03T12:33:23;5.35;;;1.45;;
17365;SDS011;8800;50.118;9.900;2023-04-03T12:35:58;4.90;;;1.55;;
17365;SDS011;8800;50.118;9.900;2023-04-03T12:38:41;2.78;;;1.50;;
17365;SDS011;8800;50.118;9.900;2023-04-03T12:41:18;4.28;;;1.50;;
17365;SDS011;8800;50.118;9.900;2023-04-03T12:43:49;3.78;;;1.50;;
17365;SDS011;8800;50.118;9.900;2023-04-03T12:46:20;4.43;;;1.58;;
17365;SDS011;8800;50.118;9.900;2023-04-03T12:48:48;4.75;;;1.90;;
17365;SDS011;8800;50.118;9.900;2023-04-03T12:51:15;4.18;;;1.30;;
17365;SDS011;8800;50.118;9.900;2023-04-03T12:53:44;3.67;;;1.50;;
17365;SDS011;8800;50.118;9.900;2023-04-03T12:56:22;4.47;;;1.45;;
17365;SDS011;8800;50.118;9.900;2023-04-03T12:58:50;3.97;;;1.52;;
17365;SDS011;8800;50.118;9.900;2023-04-03T13:01:17;4.22;;;1.60;;
17365;SDS011;8800;50.118;9.900;2023-04-03T13:03:45;2.97;;;1.40;;
17365;SDS011;8800;50.118;9.900;2023-04-03T13:06:14;3.92;;;1.40;;
17365;SDS011;8800;50.118;9.900;2023-04-03T13:08:48;4.72;;;1.42;;
17365;SDS011;8800;50.118;9.900;2023-04-03T13:11:14;4.22;;;1.75;;
17365;SDS011;8800;50.118;9.900;2023-04-03T13:13:47;3.50;;;1.60;;
17365;SDS011;8800;50.118;9.900;2023-04-03T13:16:19;2.78;;;1.35;;
17365;SDS011;8800;50.118;9.900;2023-04-03T13:18:49;4.05;;;1.52;;
17365;SDS011;8800;50.118;9.900;2023-04-03T13:21:17;2.75;;;1.50;;
17365;SDS011;8800;50.118;9.900;2023-04-03T13:23:45;2.83;;;1.45;;
17365;SDS011;8800;50.118;9.900;2023-04-03T13:26:13;2.95;;;1.20;;
17365;SDS011;8800;50.118;9.900;2023-04-03T13:28:41;2.40;;;1.30;;
17365;SDS011;8800;50.118;9.900;2023-04-03T13:31:16;4.60;;;1.27;;
17365;SDS011;8800;50.118;9.900;2023-04-03T13:33:51;4.63;;;1.52;;
17365;SDS011;8800;50.118;9.900;2023-04-03T13:36:19;3.95;;;1.27;;
17365;SDS011;8800;50.118;9.900;2023-04-03T13:38:46;2.33;;;1.33;;
17365;SDS011;8800;50.118;9.900;2023-04-03T13:41:25;2.45;;;1.27;;
17365;SDS011;8800;50.118;9.900;2023-04-03T13:43:51;3.88;;;1.20;;
17365;SDS011;8800;50.118;9.900;2023-04-03T13:46:24;2.65;;;1.30;;
17365;SDS011;8800;50.118;9.900;2023-04-03T13:48:51;2.05;;;1.35;;
17365;SDS011;8800;50.118;9.900;2023-04-03T13:51:18;1.80;;;1.20;;
17365;SDS011;8800;50.118;9.900;2023-04-03T13:53:46;4.40;;;1.13;;
17365;SDS011;8800;50.118;9.900;2023-04-03T13:56:17;1.92;;;1.05;;
17365;SDS011;8800;50.118;9.900;2023-04-03T13:58:52;1.85;;;1.05;;
17365;SDS011;8800;50.118;9.900;2023-04-03T14:01:20;2.65;;;1.10;;
17365;SDS011;8800;50.118;9.900;2023-04-03T14:03:51;1.65;;;1.00;;
17365;SDS011;8800;50.118;9.900;2023-04-03T14:06:18;3.40;;;1.15;;
17365;SDS011;8800;50.118;9.900;2023-04-03T14:08:45;2.47;;;1.35;;
17365;SDS011;8800;50.118;9.900;2023-04-03T14:11:14;5.43;;;1.20;;
17365;SDS011;8800;50.118;9.900;2023-04-03T14:13:41;3.17;;;1.40;;
17365;SDS011;8800;50.118;9.900;2023-04-03T14:16:11;4.88;;;1.40;;
17365;SDS011;8800;50.118;9.900;2023-04-03T14:18:38;2.08;;;1.40;;
17365;SDS011;8800;50.118;9.900;2023-04-03T14:21:06;4.60;;;1.40;;
17365;SDS011;8800;50.118;9.900;2023-04-03T14:23:32;2.58;;;1.45;;
17365;SDS011;8800;50.118;9.900;2023-04-03T14:25:59;3.70;;;1.00;;
17365;SDS011;8800;50.118;9.900;2023-04-03T14:28:27;1.50;;;1.00;;
17365;SDS011;8800;50.118;9.900;2023-04-03T14:30:53;2.05;;;1.17;;
17365;SDS011;8800;50.118;9.900;2023-04-03T14:33:20;2.22;;;1.05;;
17365;SDS011;8800;50.118;9.900;2023-04-03T14:35:47;1.13;;;0.90;;
17365;SDS011;8800;50.118;9.900;2023-04-03T14:38:20;2.38;;;1.13;;
17365;SDS011;8800;50.118;9.900;2023-04-03T14:40:47;2.72;;;0.90;;
17365;SDS011;8800;50.118;9.900;2023-04-03T14:43:13;2.28;;;0.95;;
17365;SDS011;8800;50.118;9.900;2023-04-03T14:45:40;2.03;;;1.10;;
17365;SDS011;8800;50.118;9.900;2023-04-03T14:48:09;1.95;;;1.10;;
17365;SDS011;8800;50.118;9.900;2023-04-03T14:50:36;1.63;;;0.90;;
17365;SDS011;8800;50.118;9.900;2023-04-03T14:53:03;2.22;;;0.80;;
17365;SDS011;8800;50.118;9.900;2023-04-03T14:55:33;2.63;;;1.00;;
17365;SDS011;8800;50.118;9.900;2023-04-03T14:58:00;1.83;;;0.93;;
17365;SDS011;8800;50.118;9.900;2023-04-03T15:00:26;2.65;;;1.10;;
17365;SDS011;8800;50.118;9.900;2023-04-03T15:02:53;2.10;;;0.80;;
17365;SDS011;8800;50.118;9.900;2023-04-03T15:05:19;2.08;;;0.90;;
17365;SDS011;8800;50.118;9.900;2023-04-03T15:07:47;2.47;;;0.90;;
17365;SDS011;8800;50.118;9.900;2023-04-03T15:10:15;3.78;;;1.20;;
17365;SDS011;8800;50.118;9.900;2023-04-03T15:12:43;1.63;;;0.70;;
17365;SDS011;8800;50.118;9.900;2023-04-03T15:15:10;3.90;;;1.00;;
17365;SDS011;8800;50.118;9.900;2023-04-03T15:17:36;2.90;;;1.30;;
17365;SDS011;8800;50.118;9.900;2023-04-03T15:20:05;3.38;;;1.55;;
17365;SDS011;8800;50.118;9.900;2023-04-03T15:22:32;1.88;;;0.73;;